createdAt,value
2023-02-13T00:01:29.078Z,102302.81
2023-02-13T00:03:56.935Z,102335.34
2023-02-13T00:06:24.724Z,102247.31
2023-02-13T00:08:52.977Z,102343.78
2023-02-13T00:11:21.504Z,102307.59
2023-02-13T00:13:50.441Z,102325.13
2023-02-13T00:16:18.463Z,102336.84
2023-02-13T00:18:46.361Z,102339.44
2023-02-13T00:21:14.703Z,102306.53
2023-02-13T00:23:42.476Z,102326.03
2023-02-13T00:26:15.741Z,102311.06
2023-02-13T00:28:46.640Z,102293.56
2023-02-13T00:31:18.980Z,102332.63
2023-02-13T00:33:47.649Z,102261.22
2023-02-13T00:36:21.142Z,102330.78
2023-02-13T00:38:49.600Z,102303.25
2023-02-13T00:41:17.974Z,102305.78
2023-02-13T00:43:47.596Z,102317.00
2023-02-13T00:46:16.704Z,102309.78
2023-02-13T00:48:44.981Z,102257.25
2023-02-13T00:51:13.034Z,102197.19
2023-02-13T00:53:41.544Z,102304.19
2023-02-13T00:56:09.884Z,102236.47
2023-02-13T00:58:39.092Z,102320.31
2023-02-13T01:01:07.201Z,102217.06
2023-02-13T01:03:35.836Z,102267.53
2023-02-13T01:06:03.974Z,102220.75
2023-02-13T01:08:32.762Z,102268.38
2023-02-13T01:11:00.888Z,102277.56
2023-02-13T01:13:29.964Z,102307.53
2023-02-13T01:15:57.691Z,102272.47
2023-02-13T01:18:27.976Z,102324.66
2023-02-13T01:21:04.175Z,102195.78
2023-02-13T01:23:39.051Z,102298.03
2023-02-13T01:26:11.381Z,102326.41
2023-02-13T01:28:39.499Z,102324.97
2023-02-13T01:31:07.724Z,102333.34
2023-02-13T01:33:36.262Z,102204.41
2023-02-13T01:36:12.742Z,102308.50
2023-02-13T01:38:41.078Z,102256.16
2023-02-13T01:41:09.580Z,102325.88
2023-02-13T01:43:47.956Z,102311.13
2023-02-13T01:46:22.590Z,102310.41
2023-02-13T01:48:54.130Z,102301.22
2023-02-13T01:51:29.948Z,102197.72
2023-02-13T01:54:15.762Z,102322.56
2023-02-13T01:56:50.740Z,102317.00
2023-02-13T01:59:24.273Z,102297.56
2023-02-13T02:01:53.517Z,102312.75
2023-02-13T02:04:31.275Z,102199.91
2023-02-13T02:07:07.141Z,102254.97
2023-02-13T02:09:39.827Z,102260.75
2023-02-13T02:12:15.069Z,102286.19
2023-02-13T02:14:43.852Z,102180.94
2023-02-13T02:17:12.467Z,102178.81
2023-02-13T02:20:18.704Z,102293.03
2023-02-13T02:23:08.524Z,102327.50
2023-02-13T02:25:39.189Z,102329.97
2023-02-13T02:28:31.872Z,102334.38
2023-02-13T02:31:12.908Z,102331.25
2023-02-13T02:33:59.369Z,102336.69
2023-02-13T02:36:30.342Z,102334.44
2023-02-13T02:38:59.702Z,102327.34
2023-02-13T02:41:43.472Z,102334.19
2023-02-13T02:45:07.920Z,102298.34
2023-02-13T02:47:57.588Z,102333.19
2023-02-13T02:50:28.814Z,102333.66
2023-02-13T02:53:15.099Z,102339.31
2023-02-13T02:56:00.872Z,102336.38
2023-02-13T02:59:00.828Z,102331.38
2023-02-13T03:01:51.263Z,102237.59
2023-02-13T03:04:55.341Z,102328.06
2023-02-13T03:07:23.143Z,102312.59
2023-02-13T03:10:16.528Z,102322.13
2023-02-13T03:13:19.412Z,102320.66
2023-02-13T03:16:09.689Z,102330.19
2023-02-13T03:18:59.321Z,102339.97
2023-02-13T03:21:54.861Z,102337.84
2023-02-13T03:24:28.464Z,102339.50
2023-02-13T03:27:05.526Z,102330.19
2023-02-13T03:29:57.413Z,102248.28
2023-02-13T03:32:58.066Z,102329.38
2023-02-13T03:36:16.684Z,102321.53
2023-02-13T03:38:58.263Z,102326.50
2023-02-13T03:41:33.807Z,102317.00
2023-02-13T03:44:23.242Z,102330.25
2023-02-13T03:46:55.166Z,102336.72
2023-02-13T03:49:52.047Z,102238.78
2023-02-13T03:52:26.460Z,102323.16
2023-02-13T03:55:19.830Z,102333.25
2023-02-13T03:58:08.519Z,102327.06
2023-02-13T04:00:43.382Z,102221.25
2023-02-13T04:03:42.975Z,102356.97
2023-02-13T04:06:17.529Z,102347.31
2023-02-13T04:08:45.637Z,102338.06
2023-02-13T04:11:26.399Z,102339.72
2023-02-13T04:14:00.310Z,102027.03
2023-02-13T04:16:41.980Z,102358.56
2023-02-13T04:19:11.492Z,102325.03
2023-02-13T04:21:40.937Z,102275.75
2023-02-13T04:24:09.669Z,102326.50
2023-02-13T04:26:43.541Z,102350.41
2023-02-13T04:29:11.570Z,102366.59
2023-02-13T04:31:40.526Z,102365.56
2023-02-13T04:34:08.473Z,102360.81
2023-02-13T04:36:36.344Z,102363.91
2023-02-13T04:39:04.791Z,102352.84
2023-02-13T04:41:32.789Z,102355.19
2023-02-13T04:44:00.814Z,102351.69
2023-02-13T04:46:29.711Z,102319.41
2023-02-13T04:48:57.546Z,102277.34
2023-02-13T04:51:25.310Z,102331.19
2023-02-13T04:53:53.353Z,102235.25
2023-02-13T04:56:21.976Z,102330.31
2023-02-13T04:58:49.930Z,102344.41
2023-02-13T05:01:18.913Z,102369.84
2023-02-13T05:03:46.732Z,102370.25
2023-02-13T05:06:14.704Z,102374.16
2023-02-13T05:08:44.304Z,102352.84
2023-02-13T05:11:12.220Z,102364.63
2023-02-13T05:13:40.037Z,102378.06
2023-02-13T05:16:07.916Z,102377.81
2023-02-13T05:18:35.732Z,102348.06
2023-02-13T05:21:22.115Z,102380.53
2023-02-13T05:23:49.995Z,102259.44
2023-02-13T05:26:17.866Z,102382.19
2023-02-13T05:29:04.228Z,102288.03
2023-02-13T05:31:32.093Z,102326.75
2023-02-13T05:33:59.963Z,102387.97
2023-02-13T05:36:28.066Z,102398.81
2023-02-13T05:38:55.772Z,102354.84
2023-02-13T05:41:23.485Z,102315.09
2023-02-13T05:43:51.300Z,102302.06
2023-02-13T05:46:19.353Z,102318.84
2023-02-13T05:48:47.176Z,102366.44
2023-02-13T05:51:15.509Z,102402.28
2023-02-13T05:53:43.178Z,102258.28
2023-02-13T05:56:10.958Z,102314.56
2023-02-13T05:58:39.416Z,102263.69
2023-02-13T06:01:08.052Z,102366.94
2023-02-13T06:03:37.333Z,102351.09
2023-02-13T06:06:05.542Z,102386.78
2023-02-13T06:08:34.220Z,102319.34
2023-02-13T06:11:02.779Z,102381.63
2023-02-13T06:13:32.367Z,102350.50
2023-02-13T06:16:01.232Z,102413.84
2023-02-13T06:18:29.017Z,102337.78
2023-02-13T06:20:57.285Z,102303.63
2023-02-13T06:23:25.768Z,102406.50
2023-02-13T06:25:53.887Z,102413.81
2023-02-13T06:28:22.418Z,102414.63
2023-02-13T06:30:50.324Z,102384.34
2023-02-13T06:33:18.165Z,102377.69
2023-02-13T06:35:45.930Z,102377.69
2023-02-13T06:38:14.255Z,102423.56
2023-02-13T06:40:43.514Z,102347.84
2023-02-13T06:43:11.432Z,102386.47
2023-02-13T06:45:39.486Z,102329.66
2023-02-13T06:48:08.124Z,102436.44
2023-02-13T06:50:36.433Z,102403.53
2023-02-13T06:53:04.294Z,102422.91
2023-02-13T06:55:32.149Z,102327.25
2023-02-13T06:58:00.866Z,102405.13
2023-02-13T07:00:29.127Z,102427.16
2023-02-13T07:03:06.682Z,102424.63
2023-02-13T07:05:34.556Z,102407.09
2023-02-13T07:08:03.269Z,102344.56
2023-02-13T07:10:31.169Z,102385.53
2023-02-13T07:13:05.672Z,102426.41
2023-02-13T07:15:35.779Z,102428.81
2023-02-13T07:18:05.896Z,102436.31
2023-02-13T07:20:34.851Z,102440.66
2023-02-13T07:23:05.877Z,102449.03
2023-02-13T07:25:34.990Z,102456.56
2023-02-13T07:28:11.114Z,102462.41
2023-02-13T07:30:39.024Z,102474.88
2023-02-13T07:33:06.823Z,102464.78
2023-02-13T07:35:36.382Z,102493.06
2023-02-13T07:38:05.015Z,102481.00
2023-02-13T07:40:34.610Z,102468.41
2023-02-13T07:43:02.743Z,102466.22
2023-02-13T07:45:31.857Z,102485.13
2023-02-13T07:48:00.355Z,102490.53
2023-02-13T07:50:29.081Z,102489.25
2023-02-13T07:53:01.889Z,102468.78
2023-02-13T07:55:31.166Z,102492.66
2023-02-13T07:58:00.729Z,102496.41
2023-02-13T08:00:28.706Z,102472.75
2023-02-13T08:03:03.615Z,102493.03
2023-02-13T08:05:33.600Z,102450.34
2023-02-13T08:08:01.705Z,102465.84
2023-02-13T08:10:48.160Z,102494.91
2023-02-13T08:13:17.128Z,102504.28
2023-02-13T08:15:45.867Z,102495.31
2023-02-13T08:18:13.804Z,102475.03
2023-02-13T08:20:41.881Z,102400.91
2023-02-13T08:23:12.320Z,102429.81
2023-02-13T08:25:40.263Z,102521.19
2023-02-13T08:28:09.399Z,102479.19
2023-02-13T08:30:38.542Z,102511.75
2023-02-13T08:33:06.401Z,102514.06
2023-02-13T08:35:34.232Z,102464.72
2023-02-13T08:38:03.562Z,102451.00
2023-02-13T08:40:32.343Z,102436.34
2023-02-13T08:43:06.046Z,102523.09
2023-02-13T08:45:34.667Z,102459.28
2023-02-13T08:48:04.413Z,102494.31
2023-02-13T08:50:32.544Z,102459.63
2023-02-13T08:53:00.653Z,102510.00
2023-02-13T08:55:30.047Z,102542.97
2023-02-13T08:58:02.648Z,102539.63
2023-02-13T09:00:32.686Z,102414.13
2023-02-13T09:03:02.911Z,102507.25
2023-02-13T09:05:32.900Z,102486.97
2023-02-13T09:08:03.049Z,102498.06
2023-02-13T09:10:33.933Z,102508.25
2023-02-13T09:13:01.759Z,102502.41
2023-02-13T09:15:31.772Z,102508.84
2023-02-13T09:18:00.056Z,102502.59
2023-02-13T09:20:28.010Z,102506.50
2023-02-13T09:22:57.058Z,102505.84
2023-02-13T09:25:25.648Z,102493.41
2023-02-13T09:27:53.836Z,102531.78
2023-02-13T09:30:24.402Z,102395.94
2023-02-13T09:32:53.899Z,102551.81
2023-02-13T09:35:22.486Z,102544.63
2023-02-13T09:37:50.455Z,102438.78
2023-02-13T09:40:21.078Z,102552.94
2023-02-13T09:42:50.799Z,102564.19
2023-02-13T09:45:21.350Z,102561.47
2023-02-13T09:47:51.457Z,102475.09
2023-02-13T09:50:25.834Z,102535.59
2023-02-13T09:52:55.886Z,102554.59
2023-02-13T09:55:26.707Z,102552.72
2023-02-13T09:58:16.596Z,102485.56
2023-02-13T10:00:50.936Z,102451.44
2023-02-13T10:03:27.408Z,102555.13
2023-02-13T10:06:36.535Z,102548.47
2023-02-13T10:09:17.668Z,102550.38
2023-02-13T10:12:07.871Z,102552.25
2023-02-13T10:14:48.231Z,102557.69
2023-02-13T10:17:29.053Z,102451.50
2023-02-13T10:20:03.419Z,102503.50
2023-02-13T10:22:41.184Z,102512.84
2023-02-13T10:25:22.872Z,102524.66
2023-02-13T10:27:57.624Z,102554.47
2023-02-13T10:30:34.007Z,102476.09
2023-02-13T10:33:19.956Z,102549.59
2023-02-13T10:36:07.313Z,102545.66
2023-02-13T10:38:41.140Z,102504.66
2023-02-13T10:41:17.704Z,102543.25
2023-02-13T10:43:57.455Z,102541.19
2023-02-13T10:47:03.118Z,102530.25
2023-02-13T10:49:36.788Z,102550.81
2023-02-13T10:52:18.135Z,102554.38
2023-02-13T10:54:48.022Z,102555.44
2023-02-13T10:57:37.108Z,102546.22
2023-02-13T11:00:14.873Z,102521.22
2023-02-13T11:02:43.793Z,102556.31
2023-02-13T11:05:24.492Z,102559.03
2023-02-13T11:07:52.630Z,102535.16
2023-02-13T11:10:23.765Z,102552.56
2023-02-13T11:12:52.313Z,102544.97
2023-02-13T11:15:26.120Z,102543.63
2023-02-13T11:17:57.903Z,102539.03
2023-02-13T11:20:37.010Z,102544.50
2023-02-13T11:23:36.138Z,102533.66
2023-02-13T11:26:15.818Z,102526.56
2023-02-13T11:28:58.346Z,102486.88
2023-02-13T11:31:33.234Z,102522.44
2023-02-13T11:34:26.033Z,102512.72
2023-02-13T11:37:07.677Z,102497.19
2023-02-13T11:39:35.466Z,102478.13
2023-02-13T11:42:03.329Z,102488.09
2023-02-13T11:44:33.280Z,102498.66
2023-02-13T11:47:05.321Z,102501.50
2023-02-13T11:49:39.643Z,102473.47
2023-02-13T11:52:23.276Z,102500.69
2023-02-13T11:55:05.331Z,102501.84
2023-02-13T11:57:36.116Z,102432.50
2023-02-13T12:00:31.220Z,102497.31
2023-02-13T12:03:00.151Z,102411.34
2023-02-13T12:05:28.698Z,102466.38
2023-02-13T12:08:01.535Z,102423.00
2023-02-13T12:10:33.451Z,102450.56
2023-02-13T12:13:21.832Z,102483.75
2023-02-13T12:16:00.770Z,102459.56
2023-02-13T12:18:37.292Z,102473.78
2023-02-13T12:21:10.319Z,102472.00
2023-02-13T12:24:12.618Z,102461.84
2023-02-13T12:26:45.610Z,102392.94
2023-02-13T12:29:28.589Z,102460.78
2023-02-13T12:32:05.805Z,102451.31
2023-02-13T12:35:22.905Z,102449.91
2023-02-13T12:37:50.733Z,102440.47
2023-02-13T12:40:51.882Z,102399.00
2023-02-13T12:43:34.989Z,102441.44
2023-02-13T12:46:27.595Z,102430.41
2023-02-13T12:49:21.568Z,102434.09
2023-02-13T12:52:04.494Z,102427.94
2023-02-13T12:54:37.627Z,102388.47
2023-02-13T12:57:17.948Z,102390.09
2023-02-13T12:59:45.809Z,102420.94
2023-02-13T13:02:38.572Z,102423.44
2023-02-13T13:05:13.594Z,102414.31
2023-02-13T13:08:27.083Z,102356.19
2023-02-13T13:11:22.583Z,102404.16
2023-02-13T13:13:56.491Z,102410.66
2023-02-13T13:16:33.752Z,102401.31
2023-02-13T13:19:18.507Z,102404.63
2023-02-13T13:22:00.301Z,102301.81
2023-02-13T13:24:31.095Z,102390.34
2023-02-13T13:27:00.886Z,102393.66
2023-02-13T13:29:55.282Z,102336.50
2023-02-13T13:32:23.426Z,102375.03
2023-02-13T13:34:52.274Z,102328.56
2023-02-13T13:38:12.796Z,102325.66
2023-02-13T13:40:51.799Z,102356.03
2023-02-13T13:43:37.814Z,102375.88
2023-02-13T13:46:23.720Z,102367.13
2023-02-13T13:49:11.765Z,102368.53
2023-02-13T13:51:39.741Z,102350.94
2023-02-13T13:54:10.360Z,102361.69
2023-02-13T13:57:02.386Z,102354.97
2023-02-13T13:59:33.175Z,102330.25
2023-02-13T14:02:21.204Z,102306.66
2023-02-13T14:05:26.022Z,102356.72
2023-02-13T14:08:24.796Z,102357.91
2023-02-13T14:10:58.481Z,102365.00
2023-02-13T14:13:36.797Z,102352.72
2023-02-13T14:16:06.795Z,102333.44
2023-02-13T14:18:35.375Z,102359.56
2023-02-13T14:21:04.309Z,102115.69
2023-02-13T14:23:49.987Z,102350.25
2023-02-13T14:26:17.747Z,102361.34
2023-02-13T14:28:51.721Z,102354.84
2023-02-13T14:31:33.366Z,102356.50
2023-02-13T14:34:27.195Z,102353.22
2023-02-13T14:37:21.225Z,102318.56
2023-02-13T14:40:15.791Z,102357.44
2023-02-13T14:42:47.345Z,102365.00
2023-02-13T14:45:17.786Z,102367.28
2023-02-13T14:47:54.315Z,102363.50
2023-02-13T14:50:53.931Z,102265.28
2023-02-13T14:53:30.297Z,102317.66
2023-02-13T14:56:14.284Z,102351.66
2023-02-13T14:58:51.512Z,102350.59
2023-02-13T15:01:29.160Z,102352.16
2023-02-13T15:04:13.509Z,102352.50
2023-02-13T15:06:44.344Z,102355.22
2023-02-13T15:09:39.206Z,102355.22
2023-02-13T15:12:37.491Z,102339.75
2023-02-13T15:15:45.768Z,102348.38
2023-02-13T15:18:24.404Z,102343.75
2023-02-13T15:20:58.455Z,102317.66
2023-02-13T15:23:30.282Z,102329.47
2023-02-13T15:26:05.750Z,102337.50
2023-02-13T15:28:36.037Z,102344.59
2023-02-13T15:31:07.220Z,102317.53
2023-02-13T15:33:51.108Z,102331.34
2023-02-13T15:36:25.731Z,102334.06
2023-02-13T15:39:10.409Z,102328.63
2023-02-13T15:41:42.721Z,102253.06
2023-02-13T15:44:18.516Z,102329.47
2023-02-13T15:46:54.164Z,102337.84
2023-02-13T15:49:28.936Z,102320.84
2023-02-13T15:52:10.176Z,102319.78
2023-02-13T15:54:51.203Z,102318.97
2023-02-13T15:57:20.244Z,102287.34
2023-02-13T15:59:49.051Z,102320.75
2023-02-13T16:02:21.262Z,102275.41
2023-02-13T16:04:52.774Z,102318.03
2023-02-13T16:07:21.791Z,102278.00
2023-02-13T16:09:49.761Z,102314.13
2023-02-13T16:12:26.013Z,102316.00
2023-02-13T16:14:57.666Z,102282.84
2023-02-13T16:17:37.878Z,102322.59
2023-02-13T16:20:20.285Z,102319.69
2023-02-13T16:23:03.087Z,102319.44
2023-02-13T16:25:40.058Z,102320.03
2023-02-13T16:28:25.744Z,102317.78
2023-02-13T16:31:02.885Z,102327.34
2023-02-13T16:33:33.062Z,102317.53
2023-02-13T16:36:10.258Z,102321.78
2023-02-13T16:38:40.887Z,102315.53
2023-02-13T16:41:18.098Z,102317.06
2023-02-13T16:43:53.682Z,102287.78
2023-02-13T16:46:41.839Z,102326.53
2023-02-13T16:49:10.252Z,102327.56
2023-02-13T16:52:08.130Z,102302.19
2023-02-13T16:54:57.484Z,102285.41
2023-02-13T16:57:31.186Z,102331.09
2023-02-13T17:00:07.382Z,102331.25
2023-02-13T17:02:43.509Z,102255.19
2023-02-13T17:05:11.416Z,102338.78
2023-02-13T17:07:40.554Z,102346.94
2023-02-13T17:10:18.163Z,102347.16
2023-02-13T17:12:46.539Z,102356.13
2023-02-13T17:15:18.555Z,102359.44
2023-02-13T17:17:47.143Z,102332.50
2023-02-13T17:20:30.633Z,102350.31
2023-02-13T17:23:01.088Z,102353.03
2023-02-13T17:25:30.375Z,102301.63
2023-02-13T17:28:01.136Z,102340.03
2023-02-13T17:30:32.611Z,102371.03
2023-02-13T17:33:07.416Z,102337.19
2023-02-13T17:35:36.241Z,102346.63
2023-02-13T17:38:06.362Z,102380.81
2023-02-13T17:40:34.191Z,102395.41
2023-02-13T17:43:02.490Z,102370.47
2023-02-13T17:45:32.806Z,102378.53
2023-02-13T17:48:01.068Z,102388.22
2023-02-13T17:50:31.412Z,102345.34
2023-02-13T17:53:04.326Z,102397.19
2023-02-13T17:55:34.567Z,102390.19
2023-02-13T17:58:02.741Z,102405.91
2023-02-13T18:00:33.842Z,102043.91
2023-02-13T18:03:01.758Z,102148.88
2023-02-13T18:05:29.717Z,102422.06
2023-02-13T18:07:57.465Z,102418.59
2023-02-13T18:10:30.289Z,102217.97
2023-02-13T18:13:04.103Z,102433.63
2023-02-13T18:15:45.209Z,102439.06
2023-02-13T18:18:17.223Z,102366.16
2023-02-13T18:20:45.751Z,102286.13
2023-02-13T18:23:14.345Z,102409.66
2023-02-13T18:25:42.206Z,102348.31
2023-02-13T18:28:10.576Z,102447.13
2023-02-13T18:30:42.011Z,102449.28
2023-02-13T18:33:10.376Z,102396.81
2023-02-13T18:35:38.387Z,102317.34
2023-02-13T18:38:06.244Z,102414.88
2023-02-13T18:40:35.052Z,102408.88
2023-02-13T18:43:03.385Z,102448.53
2023-02-13T18:45:31.261Z,102359.03
2023-02-13T18:47:59.110Z,102361.91
2023-02-13T18:50:27.542Z,102452.47
2023-02-13T18:52:56.962Z,102448.41
2023-02-13T18:55:24.865Z,102416.69
2023-02-13T18:57:53.777Z,102455.00
2023-02-13T19:00:23.464Z,102381.72
2023-02-13T19:02:52.105Z,102448.50
2023-02-13T19:05:21.167Z,102445.78
2023-02-13T19:07:48.986Z,102391.03
2023-02-13T19:10:17.096Z,102448.66
2023-02-13T19:12:44.853Z,102339.31
2023-02-13T19:15:12.646Z,102309.06
2023-02-13T19:17:40.460Z,102438.50
2023-02-13T19:20:11.197Z,102454.44
2023-02-13T19:22:39.417Z,102408.44
2023-02-13T19:25:07.572Z,102446.50
2023-02-13T19:27:38.578Z,102453.00
2023-02-13T19:30:10.888Z,102347.13
2023-02-13T19:32:38.727Z,102433.50
2023-02-13T19:35:06.780Z,102442.88
2023-02-13T19:37:43.312Z,102396.28
2023-02-13T19:40:13.502Z,102439.78
2023-02-13T19:42:42.014Z,102447.56
2023-02-13T19:45:10.875Z,102381.16
2023-02-13T19:47:38.714Z,102444.50
2023-02-13T19:50:07.434Z,102420.50
2023-02-13T19:52:35.250Z,102462.13
2023-02-13T19:55:03.337Z,102449.56
2023-02-13T19:57:31.175Z,102438.31
2023-02-13T20:00:01.982Z,102351.22
2023-02-13T20:02:39.732Z,102358.13
2023-02-13T20:05:09.289Z,102352.50
2023-02-13T20:07:37.286Z,102455.69
2023-02-13T20:10:07.176Z,102470.81
2023-02-13T20:12:35.220Z,102452.19
2023-02-13T20:15:05.134Z,102419.00
2023-02-13T20:17:40.483Z,102448.22
2023-02-13T20:20:08.932Z,102416.03
2023-02-13T20:22:38.662Z,102459.56
2023-02-13T20:25:10.052Z,102390.41
2023-02-13T20:27:42.408Z,102425.03
2023-02-13T20:30:14.789Z,102457.75
2023-02-13T20:32:44.226Z,102377.75
2023-02-13T20:35:11.927Z,102442.50
2023-02-13T20:37:39.663Z,102471.81
2023-02-13T20:40:17.550Z,102420.97
2023-02-13T20:42:45.797Z,102416.97
2023-02-13T20:45:15.645Z,102411.50
2023-02-13T20:47:46.385Z,102475.22
2023-02-13T20:50:14.247Z,102480.19
2023-02-13T20:52:42.009Z,102408.19
2023-02-13T20:55:09.890Z,102483.97
2023-02-13T20:57:38.174Z,102488.56
2023-02-13T21:00:09.073Z,102495.56
2023-02-13T21:02:38.234Z,102408.28
2023-02-13T21:05:06.145Z,102496.25
2023-02-13T21:07:34.144Z,102443.00
2023-02-13T21:10:02.299Z,102483.81
2023-02-13T21:12:30.156Z,102497.66
2023-02-13T21:14:58.025Z,102482.16
2023-02-13T21:17:25.861Z,102503.81
2023-02-13T21:19:53.730Z,102491.44
2023-02-13T21:22:21.782Z,102469.16
2023-02-13T21:24:50.039Z,102488.00
2023-02-13T21:27:17.987Z,102469.06
2023-02-13T21:29:47.062Z,102503.13
2023-02-13T21:32:15.225Z,102481.25
2023-02-13T21:34:43.553Z,102464.69
2023-02-13T21:37:11.278Z,102469.28
2023-02-13T21:39:40.139Z,102331.50
2023-02-13T21:42:07.905Z,102440.19
2023-02-13T21:44:35.678Z,102496.25
2023-02-13T21:47:04.983Z,102441.97
2023-02-13T21:49:37.096Z,102465.84
2023-02-13T21:52:04.883Z,102448.59
2023-02-13T21:54:33.014Z,102483.09
2023-02-13T21:57:00.793Z,102450.50
2023-02-13T21:59:28.725Z,102395.38
2023-02-13T22:01:58.382Z,102484.06
2023-02-13T22:04:27.171Z,102498.13
2023-02-13T22:06:55.198Z,102491.38
2023-02-13T22:09:23.781Z,102474.00
2023-02-13T22:11:54.590Z,102486.63
2023-02-13T22:14:22.585Z,102479.06
2023-02-13T22:16:52.641Z,102466.63
2023-02-13T22:19:22.965Z,102491.00
2023-02-13T22:21:50.852Z,102489.81
2023-02-13T22:24:19.077Z,102397.84
2023-02-13T22:26:46.979Z,102476.09
2023-02-13T22:29:17.957Z,102476.81
2023-02-13T22:31:47.013Z,102470.41
2023-02-13T22:34:15.749Z,102438.59
2023-02-13T22:36:44.107Z,102490.88
2023-02-13T22:39:12.804Z,102485.22
2023-02-13T22:41:41.266Z,102472.97
2023-02-13T22:44:09.129Z,102495.94
2023-02-13T22:46:36.984Z,102488.13
2023-02-13T22:49:06.351Z,102393.94
2023-02-13T22:51:36.545Z,102490.50
2023-02-13T22:54:04.923Z,102458.00
2023-02-13T22:56:33.422Z,102498.56
2023-02-13T22:59:01.496Z,102492.31
2023-02-13T23:01:30.120Z,102497.16
2023-02-13T23:03:59.049Z,102437.91
2023-02-13T23:06:27.299Z,102457.75
2023-02-13T23:08:56.386Z,102379.31
2023-02-13T23:11:46.226Z,102463.81
2023-02-13T23:14:14.982Z,102505.78
2023-02-13T23:17:03.212Z,102481.94
2023-02-13T23:19:31.456Z,102496.25
2023-02-13T23:21:59.750Z,102491.66
2023-02-13T23:24:29.412Z,102466.94
2023-02-13T23:26:57.637Z,102492.88
2023-02-13T23:29:25.701Z,102464.34
2023-02-13T23:31:54.556Z,102485.78
2023-02-13T23:34:22.704Z,102487.28
2023-02-13T23:36:52.179Z,102449.19
2023-02-13T23:39:21.997Z,102418.44
2023-02-13T23:41:51.659Z,102403.28
2023-02-13T23:44:19.878Z,102444.00
2023-02-13T23:46:47.818Z,102420.81
2023-02-13T23:49:15.861Z,102467.34
2023-02-13T23:51:43.744Z,102133.91
2023-02-13T23:54:21.973Z,102468.25
2023-02-13T23:56:54.094Z,102430.41
2023-02-13T23:59:23.688Z,102464.81
